Time;durP1;ratioP1;P1;durP2;ratioP2;P2;SDS_P1;SDS_P2;PMS_P1;PMS_P2;Temp;Humidity;BMP_temperature;BMP_pressure;BME280_temperature;BME280_humidity;BME280_pressure;Samples;Min_cycle;Max_cycle;Signal;HPM_P1;HPM_P2
2024/04/06 00:02:24;;;;;;;35.85;33.85;;;;;;;12.95;100.00;101532.69;5094690;28;20052;-77
2024/04/06 00:04:58;;;;;;;33.65;31.75;;;;;;;12.96;100.00;101529.81;5094614;28;20060;-78
2024/04/06 00:07:28;;;;;;;33.72;31.83;;;;;;;12.91;100.00;101521.59;5103879;28;20074;-77
2024/04/06 00:10:03;;;;;;;40.25;38.05;;;;;;;13.01;100.00;101532.72;5100767;28;20048;-77
2024/04/06 00:12:30;;;;;;;39.85;37.75;;;;;;;12.98;100.00;101525.13;5090714;28;20088;-75
2024/04/06 00:14:56;;;;;;;37.35;35.35;;;;;;;12.96;100.00;101532.50;5097512;28;20079;-75
2024/04/06 00:17:23;;;;;;;35.72;33.63;;;;;;;12.92;100.00;101528.59;5100800;28;20048;-75
2024/04/06 00:19:49;;;;;;;37.88;35.97;;;;;;;12.80;100.00;101525.69;5094365;28;20048;-76
2024/04/06 00:22:18;;;;;;;42.28;39.97;;;;;;;12.78;100.00;101525.06;5101585;28;20875;-77
2024/04/06 00:24:44;;;;;;;37.70;35.50;;;;;;;12.75;100.00;101533.47;5104802;28;20055;-77
2024/04/06 00:27:11;;;;;;;37.17;34.70;;;;;;;12.81;100.00;101524.66;5108865;28;20048;-77
2024/04/06 00:29:37;;;;;;;36.53;34.42;;;;;;;12.71;100.00;101515.38;5097415;28;20521;-77
2024/04/06 00:32:05;;;;;;;37.28;35.28;;;;;;;12.66;100.00;101516.00;5107525;28;20047;-77
2024/04/06 00:34:41;;;;;;;34.22;32.13;;;;;;;12.59;100.00;101508.00;5107275;28;20048;-77
2024/04/06 00:37:09;;;;;;;34.08;32.08;;;;;;;12.64;100.00;101502.06;5100105;28;20047;-77
2024/04/06 00:39:37;;;;;;;36.50;34.40;;;;;;;12.70;100.00;101501.25;5094025;28;20048;-77
2024/04/06 00:42:05;;;;;;;37.42;35.42;;;;;;;12.84;100.00;101492.28;5102096;28;20058;-77
2024/04/06 00:44:36;;;;;;;34.67;32.67;;;;;;;12.76;100.00;101497.78;5109579;28;20052;-75
2024/04/06 00:47:04;;;;;;;47.88;45.38;;;;;;;12.95;100.00;101482.03;5098889;28;20524;-75
2024/04/06 00:49:32;;;;;;;47.92;45.42;;;;;;;12.78;100.00;101473.59;5098932;28;20315;-75
2024/04/06 00:51:59;;;;;;;37.35;35.15;;;;;;;12.75;100.00;101460.69;5101667;28;20052;-75
2024/04/06 00:54:26;;;;;;;41.72;39.53;;;;;;;12.74;100.00;101469.72;5099767;28;20044;-75
2024/04/06 00:56:56;;;;;;;36.80;34.80;;;;;;;12.60;100.00;101464.31;5094341;28;20051;-75
2024/04/06 00:59:22;;;;;;;38.17;35.97;;;;;;;12.71;100.00;101472.75;5102760;28;20408;-77
2024/04/06 01:01:51;;;;;;;42.10;39.80;;;;;;;12.48;100.00;101476.59;5109378;28;20058;-77
2024/04/06 01:04:18;;;;;;;39.38;37.17;;;;;;;12.38;100.00;101471.63;5105003;28;20055;-75
2024/04/06 01:06:45;;;;;;;34.80;32.80;;;;;;;12.42;100.00;101473.91;5099214;28;20083;-75
2024/04/06 01:09:11;;;;;;;36.28;34.17;;;;;;;12.45;100.00;101465.50;5100605;28;20051;-75
2024/04/06 01:11:38;;;;;;;41.15;38.95;;;;;;;12.48;100.00;101471.25;5099025;28;20051;-75
2024/04/06 01:14:06;;;;;;;43.05;40.85;;;;;;;12.34;100.00;101477.56;5103881;28;20047;-75
2024/04/06 01:16:33;;;;;;;40.83;38.53;;;;;;;12.33;100.00;101471.41;5097093;28;20109;-76
2024/04/06 01:19:07;;;;;;;35.70;33.60;;;;;;;12.43;100.00;101476.34;5097352;28;20078;-75
2024/04/06 01:21:35;;;;;;;36.20;34.30;;;;;;;12.24;100.00;101477.94;5101527;28;20048;-76
2024/04/06 01:24:05;;;;;;;35.08;32.97;;;;;;;11.99;100.00;101480.28;5104378;28;20070;-75
2024/04/06 01:26:32;;;;;;;39.67;37.38;;;;;;;12.05;100.00;101476.00;5094575;28;20048;-76
2024/04/06 01:29:07;;;;;;;37.60;35.42;;;;;;;11.98;100.00;101475.13;5103328;28;20047;-77
2024/04/06 01:31:34;;;;;;;34.38;32.38;;;;;;;12.03;100.00;101478.03;5103627;28;20108;-77
2024/04/06 01:34:01;;;;;;;38.25;36.15;;;;;;;12.09;100.00;101474.56;5105643;28;20043;-77
2024/04/06 01:36:32;;;;;;;36.95;34.95;;;;;;;12.05;100.00;101470.69;5098408;28;20556;-77
2024/04/06 01:39:08;;;;;;;35.25;33.25;;;;;;;11.75;100.00;101462.91;5103384;28;20098;-78
2024/04/06 01:41:36;;;;;;;36.20;34.30;;;;;;;11.18;100.00;101466.56;5097567;28;20055;-77
2024/04/06 01:44:04;;;;;;;35.15;33.28;;;;;;;11.43;100.00;101470.44;5111615;28;20043;-77
2024/04/06 01:46:31;;;;;;;34.60;32.70;;;;;;;11.34;100.00;101470.78;5092019;28;20090;-77
2024/04/06 01:49:08;;;;;;;36.42;34.47;;;;;;;11.05;100.00;101469.13;5108534;28;20048;-77
2024/04/06 01:51:35;;;;;;;36.97;34.97;;;;;;;11.16;100.00;101472.06;5098004;28;20101;-75
2024/04/06 01:54:01;;;;;;;37.83;35.83;;;;;;;11.30;100.00;101474.84;5106595;28;20090;-77
2024/04/06 01:56:45;;;;;;;32.90;31.10;;;;;;;11.51;100.00;101485.44;5081657;28;20092;-75
2024/04/06 01:59:18;;;;;;;35.95;34.05;;;;;;;11.29;100.00;101479.34;5091029;28;20518;-75
2024/04/06 02:01:45;;;;;;;41.83;39.80;;;;;;;11.47;100.00;101486.88;5094082;28;20489;-76
2024/04/06 02:04:11;;;;;;;38.33;36.30;;;;;;;11.54;100.00;101484.25;5106409;28;20040;-75
2024/04/06 02:06:39;;;;;;;38.55;36.45;;;;;;;10.44;100.00;101480.94;5093544;28;20052;-75
2024/04/06 02:09:05;;;;;;;40.60;38.50;;;;;;;10.69;100.00;101473.47;5095274;28;20118;-75
2024/04/06 02:11:39;;;;;;;40.10;38.10;;;;;;;10.85;100.00;101483.03;5103264;28;20056;-75
2024/04/06 02:14:07;;;;;;;43.55;41.35;;;;;;;11.34;100.00;101476.91;5090679;28;20055;-75
2024/04/06 02:16:34;;;;;;;43.92;41.72;;;;;;;11.11;100.00;101479.81;5090018;28;20060;-76
2024/04/06 02:19:00;;;;;;;42.47;40.28;;;;;;;11.12;100.00;101478.78;5098063;28;20531;-75
2024/04/06 02:21:27;;;;;;;40.95;38.85;;;;;;;10.99;100.00;101471.50;5090103;28;20044;-76
2024/04/06 02:24:17;;;;;;;40.47;38.40;;;;;;;11.06;100.00;101468.91;5103678;28;20503;-76
2024/04/06 02:26:45;;;;;;;51.65;49.05;;;;;;;11.15;100.00;101467.75;5101091;28;20063;-75
2024/04/06 02:29:20;;;;;;;41.25;39.15;;;;;;;11.17;100.00;101464.94;5093714;28;20048;-75
2024/04/06 02:31:46;;;;;;;39.53;37.45;;;;;;;11.13;100.00;101456.50;5099038;28;20062;-75
2024/04/06 02:34:13;;;;;;;42.22;40.08;;;;;;;11.18;100.00;101461.25;5100122;28;20047;-75
2024/04/06 02:36:39;;;;;;;41.08;38.97;;;;;;;11.21;100.00;101459.03;5090625;28;20055;-76
2024/04/06 02:39:09;;;;;;;43.35;41.15;;;;;;;11.29;100.00;101457.25;5097774;28;20044;-75
2024/04/06 02:41:35;;;;;;;40.75;38.65;;;;;;;11.21;100.00;101459.03;5100695;28;20790;-76
2024/04/06 02:44:03;;;;;;;50.72;48.33;;;;;;;11.27;100.00;101464.59;5105315;28;20051;-75
2024/04/06 02:46:30;;;;;;;43.00;40.80;;;;;;;11.24;100.00;101460.47;5109585;28;20467;-76
2024/04/06 02:49:00;;;;;;;33.95;32.05;;;;;;;11.27;100.00;101461.94;5101173;28;20131;-77
2024/04/06 02:51:27;;;;;;;34.72;32.92;;;;;;;11.20;100.00;101451.25;5093407;28;20063;-77
2024/04/06 02:54:02;;;;;;;33.67;31.88;;;;;;;11.19;100.00;101450.41;5097214;28;20058;-77
2024/04/06 02:56:29;;;;;;;36.90;34.90;;;;;;;11.11;100.00;101447.91;5105796;28;20491;-77
2024/04/06 02:58:56;;;;;;;33.55;31.75;;;;;;;11.03;100.00;101447.22;5096371;28;20400;-77
2024/04/06 03:01:22;;;;;;;32.15;30.35;;;;;;;11.14;100.00;101454.69;5102789;28;20052;-77
2024/04/06 03:03:51;;;;;;;35.20;33.30;;;;;;;11.08;100.00;101445.63;5094604;28;20047;-77
2024/04/06 03:06:17;;;;;;;36.92;34.92;;;;;;;11.18;100.00;101435.47;5099520;28;20052;-75
2024/04/06 03:08:47;;;;;;;41.67;39.58;;;;;;;11.21;100.00;101445.72;5104961;28;20048;-75
2024/04/06 03:11:13;;;;;;;37.10;35.10;;;;;;;11.23;100.00;101441.06;5100248;28;20052;-75
2024/04/06 03:13:40;;;;;;;38.15;36.15;;;;;;;11.19;100.00;101441.59;5108792;28;20138;-75
2024/04/06 03:16:06;;;;;;;37.60;35.70;;;;;;;11.14;100.00;101442.19;5102973;28;20044;-75
2024/04/06 03:18:34;;;;;;;35.42;33.70;;;;;;;10.99;100.00;101444.13;5095339;28;20516;-75
2024/04/06 03:21:10;;;;;;;41.05;39.05;;;;;;;11.19;100.00;101446.94;5098000;28;20135;-75
2024/04/06 03:23:37;;;;;;;41.13;38.97;;;;;;;10.24;100.00;101453.28;5105830;28;20052;-75
2024/04/06 03:26:04;;;;;;;41.53;39.63;;;;;;;10.30;100.00;101464.03;5094248;28;20063;-76
2024/04/06 03:28:31;;;;;;;38.88;37.08;;;;;;;10.36;100.00;101462.47;5094883;28;20048;-75
2024/04/06 03:30:58;;;;;;;45.70;43.60;;;;;;;10.22;100.00;101469.41;5095209;28;20742;-76
2024/04/06 03:33:26;;;;;;;39.80;38.00;;;;;;;10.16;100.00;101475.44;5102066;28;20052;-76
2024/04/06 03:35:52;;;;;;;36.42;34.83;;;;;;;10.13;100.00;101473.16;5103443;28;20047;-75
2024/04/06 03:38:20;;;;;;;33.72;32.13;;;;;;;9.66;100.00;101469.06;5097156;28;20066;-75
2024/04/06 03:40:48;;;;;;;35.17;33.58;;;;;;;9.42;100.00;101469.28;5099868;28;20047;-75
2024/04/06 03:43:15;;;;;;;31.00;29.35;;;;;;;8.76;100.00;101471.63;5092575;28;20048;-75
2024/04/06 03:45:43;;;;;;;30.30;28.25;;;;;;;9.21;100.00;101468.13;5087700;28;20084;-75
2024/04/06 03:48:35;;;;;;;29.52;27.83;;;;;;;9.29;100.00;101477.81;5097133;28;20143;-75
2024/04/06 03:51:01;;;;;;;30.67;28.95;;;;;;;9.03;100.00;101479.03;5106198;28;20485;-77
2024/04/06 03:53:38;;;;;;;31.40;29.70;;;;;;;8.79;100.00;101485.31;5104654;28;20076;-76
2024/04/06 03:56:13;;;;;;;32.33;30.52;;;;;;;8.95;100.00;101479.09;5104389;28;20055;-75
2024/04/06 03:58:40;;;;;;;30.58;28.77;;;;;;;8.68;100.00;101483.91;5096627;28;20047;-76
2024/04/06 04:01:07;;;;;;;31.88;29.98;;;;;;;9.02;100.00;101488.00;5103765;28;20063;-75
2024/04/06 04:03:33;;;;;;;31.45;29.55;;;;;;;9.30;100.00;101490.09;5099499;28;20051;-76
2024/04/06 04:06:11;;;;;;;30.98;29.08;;;;;;;9.17;100.00;101486.22;5106827;28;20793;-77
2024/04/06 04:08:47;;;;;;;31.75;29.85;;;;;;;8.89;100.00;101491.22;5110967;28;20431;-75
2024/04/06 04:11:14;;;;;;;29.45;27.65;;;;;;;9.04;100.00;101490.47;5101937;28;20051;-75
2024/04/06 04:13:41;;;;;;;30.15;28.25;;;;;;;9.17;100.00;101496.00;5097729;28;20042;-75
2024/04/06 04:16:09;;;;;;;30.45;28.55;;;;;;;9.24;100.00;101491.63;5091608;28;20055;-75
2024/04/06 04:18:36;;;;;;;26.83;24.20;;;;;;;8.82;100.00;101495.56;5103466;28;20074;-75
2024/04/06 04:21:16;;;;;;;24.50;23.10;;;;;;;9.04;100.00;101490.47;5095160;28;20047;-76
2024/04/06 04:23:48;;;;;;;25.25;23.85;;;;;;;9.29;100.00;101501.69;5107066;27;20044;-75
2024/04/06 04:26:21;;;;;;;25.05;23.55;;;;;;;9.12;100.00;101501.81;5109988;28;20130;-75
2024/04/06 04:28:47;;;;;;;26.30;24.80;;;;;;;8.97;100.00;101506.25;5102717;28;20048;-76
2024/04/06 04:31:16;;;;;;;27.13;25.52;;;;;;;8.56;100.00;101513.59;5099781;28;20052;-75
2024/04/06 04:33:42;;;;;;;27.00;25.30;;;;;;;9.15;100.00;101516.56;5104191;28;20051;-75
2024/04/06 04:36:10;;;;;;;25.95;24.35;;;;;;;9.27;100.00;101517.78;5103380;28;20072;-75
2024/04/06 04:38:37;;;;;;;26.27;24.58;;;;;;;9.13;100.00;101524.66;5104057;28;20047;-76
2024/04/06 04:41:05;;;;;;;24.98;23.48;;;;;;;9.36;100.00;101519.38;5105439;28;20127;-75
2024/04/06 04:43:31;;;;;;;25.52;24.02;;;;;;;9.18;100.00;101521.50;5097502;28;20040;-75
2024/04/06 04:45:59;;;;;;;27.38;25.77;;;;;;;9.34;100.00;101510.75;5098706;28;20479;-76
2024/04/06 04:48:33;;;;;;;27.20;25.60;;;;;;;9.14;100.00;101513.09;5092841;28;20055;-76
2024/04/06 04:51:02;;;;;;;27.92;26.27;;;;;;;9.01;100.00;101512.84;5095512;28;20495;-77
2024/04/06 04:53:35;;;;;;;27.25;25.65;;;;;;;9.02;100.00;101503.09;5104847;28;20074;-77
2024/04/06 04:56:02;;;;;;;27.08;25.48;;;;;;;9.05;100.00;101500.91;5105089;28;20052;-77
2024/04/06 04:58:30;;;;;;;27.38;25.67;;;;;;;9.20;100.00;101511.56;5105160;28;20055;-76
2024/04/06 05:00:59;;;;;;;26.65;25.05;;;;;;;9.33;100.00;101513.59;5091034;28;20056;-77
2024/04/06 05:03:26;;;;;;;28.02;26.33;;;;;;;9.84;100.00;101509.31;5099996;28;20423;-77
2024/04/06 05:05:57;;;;;;;27.55;25.95;;;;;;;10.24;100.00;101509.06;5096734;28;20048;-78
2024/04/06 05:08:23;;;;;;;27.00;25.50;;;;;;;10.59;100.00;101511.94;5102487;28;20835;-76
2024/04/06 05:10:51;;;;;;;27.08;25.48;;;;;;;10.53;100.00;101511.72;5095050;28;20784;-75
2024/04/06 05:13:17;;;;;;;29.63;27.92;;;;;;;10.82;100.00;101515.28;5080332;28;20062;-77
2024/04/06 05:16:00;;;;;;;30.50;28.80;;;;;;;11.20;100.00;101515.88;5097115;28;20141;-76
2024/04/06 05:18:27;;;;;;;29.27;27.58;;;;;;;11.28;100.00;101512.25;5096151;28;20134;-77
2024/04/06 05:21:06;;;;;;;31.33;29.30;;;;;;;11.50;100.00;101521.06;5100694;28;20777;-77
2024/04/06 05:23:32;;;;;;;27.35;25.65;;;;;;;11.45;100.00;101532.25;5102080;28;20052;-78
2024/04/06 05:26:00;;;;;;;27.02;25.35;;;;;;;11.58;100.00;101531.53;5095187;28;20117;-76
2024/04/06 05:28:26;;;;;;;28.33;26.42;;;;;;;11.83;100.00;101537.28;5090453;28;20082;-76
2024/04/06 05:30:54;;;;;;;27.35;25.58;;;;;;;12.02;100.00;101534.97;5101914;28;20439;-76
2024/04/06 05:33:24;;;;;;;27.00;25.30;;;;;;;12.28;100.00;101542.28;5105584;28;20404;-77
2024/04/06 05:35:53;;;;;;;28.80;27.00;;;;;;;12.37;100.00;101546.41;5095125;28;20047;-77
2024/04/06 05:38:21;;;;;;;28.52;26.73;;;;;;;12.32;100.00;101538.22;5106042;28;20449;-79
2024/04/06 05:40:48;;;;;;;29.33;27.52;;;;;;;12.66;100.00;101542.66;5104561;28;20048;-77
2024/04/06 05:43:17;;;;;;;28.55;26.75;;;;;;;12.81;100.00;101538.00;5086765;28;20439;-75
2024/04/06 05:46:00;;;;;;;28.90;27.05;;;;;;;13.09;100.00;101537.03;5099352;28;20142;-76
2024/04/06 05:48:28;;;;;;;30.52;28.52;;;;;;;13.27;100.00;101531.94;5105636;28;20087;-76
2024/04/06 05:50:59;;;;;;;30.13;28.27;;;;;;;13.36;100.00;101534.44;5100495;28;20604;-75
2024/04/06 05:53:27;;;;;;;31.83;29.80;;;;;;;13.49;100.00;101531.75;5083604;28;20063;-75
2024/04/06 05:55:54;;;;;;;31.00;29.00;;;;;;;13.67;100.00;101523.94;5091062;28;20052;-76
2024/04/06 05:58:20;;;;;;;29.85;27.95;;;;;;;13.74;100.00;101513.28;5092401;28;20048;-75
2024/04/06 06:00:49;;;;;;;29.52;27.52;;;;;;;13.93;100.00;101519.63;5106152;28;20058;-76
2024/04/06 06:03:46;;;;;;;30.08;28.08;;;;;;;14.24;100.00;101513.56;5104693;28;20494;-76
2024/04/06 06:06:14;;;;;;;28.88;26.92;;;;;;;14.37;100.00;101521.56;5110764;28;20050;-77
2024/04/06 06:08:40;;;;;;;30.77;28.48;;;;;;;14.52;100.00;101521.28;5106968;28;20140;-77
2024/04/06 06:11:08;;;;;;;29.15;27.15;;;;;;;14.63;100.00;101523.31;5106909;28;20048;-76
2024/04/06 06:13:34;;;;;;;31.55;29.45;;;;;;;14.86;100.00;101528.13;5090277;28;20122;-77
2024/04/06 06:16:03;;;;;;;30.60;28.50;;;;;;;14.95;100.00;101515.34;5105712;28;20051;-75
2024/04/06 06:18:29;;;;;;;32.47;30.27;;;;;;;14.79;100.00;101502.44;5100125;28;20051;-77
2024/04/06 06:21:07;;;;;;;31.52;29.33;;;;;;;15.07;100.00;101504.75;5103726;28;20054;-77
2024/04/06 06:23:44;;;;;;;31.40;29.20;;;;;;;15.26;100.00;101517.16;5101091;28;20051;-77
2024/04/06 06:26:11;;;;;;;32.28;30.08;;;;;;;15.24;100.00;101521.91;5098857;28;20043;-77
2024/04/06 06:28:37;;;;;;;32.85;30.55;;;;;;;15.42;100.00;101523.03;5096162;27;20499;-77
2024/04/06 06:31:05;;;;;;;32.72;30.52;;;;;;;15.48;100.00;101522.16;5106826;28;20067;-77
2024/04/06 06:33:33;;;;;;;32.83;30.67;;;;;;;15.75;100.00;101536.16;5094263;28;20047;-77
2024/04/06 06:36:00;;;;;;;33.13;30.98;;;;;;;16.00;100.00;101544.16;5096812;28;20139;-78
2024/04/06 06:38:28;;;;;;;34.63;32.33;;;;;;;16.22;100.00;101549.91;5090287;28;20063;-77
2024/04/06 06:40:57;;;;;;;35.85;33.55;;;;;;;16.59;100.00;101544.53;5091106;28;20074;-77
2024/04/06 06:43:27;;;;;;;36.88;34.47;;;;;;;16.55;100.00;101540.63;5105158;28;20052;-77
2024/04/06 06:45:55;;;;;;;37.05;34.45;;;;;;;16.29;100.00;101536.44;5097103;28;20050;-77
2024/04/06 06:48:21;;;;;;;34.67;32.28;;;;;;;16.12;100.00;101539.69;5096525;28;20048;-78
2024/04/06 06:50:48;;;;;;;35.13;32.83;;;;;;;16.31;100.00;101542.38;5096144;28;20051;-76
2024/04/06 06:53:14;;;;;;;35.45;33.15;;;;;;;16.41;100.00;101545.34;5101601;28;20495;-77
2024/04/06 06:55:43;;;;;;;35.42;33.03;;;;;;;16.60;100.00;101541.59;5091830;28;20047;-77
2024/04/06 06:58:10;;;;;;;30.95;28.85;;;;;;;16.83;100.00;101546.28;5099718;27;20625;-77
2024/04/06 07:00:38;;;;;;;30.13;28.02;;;;;;;16.06;100.00;101542.44;5084776;28;20055;-77
2024/04/06 07:03:05;;;;;;;29.17;27.08;;;;;;;16.54;100.00;101544.38;5100071;28;20051;-77
2024/04/06 07:05:32;;;;;;;31.75;29.55;;;;;;;16.17;100.00;101544.38;5098808;28;20040;-77
2024/04/06 07:07:59;;;;;;;31.80;29.63;;;;;;;16.83;100.00;101548.97;5101521;28;20083;-76
2024/04/06 07:10:26;;;;;;;31.27;29.17;;;;;;;17.53;100.00;101542.97;5098252;28;20052;-76
2024/04/06 07:12:54;;;;;;;33.15;30.75;;;;;;;17.63;100.00;101555.81;5106607;28;20051;-76
2024/04/06 07:15:21;;;;;;;33.25;30.90;;;;;;;17.30;100.00;101556.34;5108640;28;20582;-76
2024/04/06 07:17:47;;;;;;;32.17;29.98;;;;;;;18.09;100.00;101556.88;5098649;28;20051;-76
2024/04/06 07:20:14;;;;;;;33.00;30.70;;;;;;;17.66;100.00;101559.91;5099667;28;20626;-75
2024/04/06 07:22:40;;;;;;;51.70;48.60;;;;;;;17.70;100.00;101558.38;5103483;28;20043;-75
2024/04/06 07:25:14;;;;;;;56.08;52.78;;;;;;;17.52;100.00;101551.25;5101788;28;20079;-76
2024/04/06 07:27:40;;;;;;;50.47;47.47;;;;;;;17.61;100.00;101556.06;5093720;28;20044;-76
2024/04/06 07:30:16;;;;;;;48.72;45.63;;;;;;;18.04;100.00;101546.03;5096406;28;20079;-77
2024/04/06 07:32:42;;;;;;;68.28;64.57;;;;;;;17.54;100.00;101568.75;5093227;28;20052;-77
2024/04/06 07:35:11;;;;;;;59.92;56.53;;;;;;;18.23;100.00;101569.03;5096002;28;20117;-77
2024/04/06 07:37:39;;;;;;;71.40;67.60;;;;;;;18.06;100.00;101560.88;5097436;28;20040;-77
2024/04/06 07:40:08;;;;;;;64.43;60.83;;;;;;;17.77;100.00;101559.09;5103922;28;20048;-77
2024/04/06 07:42:34;;;;;;;60.53;57.13;;;;;;;17.38;100.00;101556.03;5106398;28;20450;-77
2024/04/06 07:45:02;;;;;;;40.05;37.53;;;;;;;17.83;100.00;101553.63;5104549;28;20044;-77
2024/04/06 07:47:29;;;;;;;41.60;39.00;;;;;;;18.98;100.00;101556.56;5103422;28;20048;-77
2024/04/06 07:49:57;;;;;;;39.80;37.20;;;;;;;18.01;100.00;101554.56;5094143;28;20060;-77
2024/04/06 07:52:23;;;;;;;38.28;35.67;;;;;;;18.74;100.00;101563.91;5093301;28;20508;-77
2024/04/06 07:54:50;;;;;;;40.10;37.40;;;;;;;18.65;100.00;101570.69;5104370;28;20054;-77
2024/04/06 07:57:17;;;;;;;42.67;39.88;;;;;;;18.30;100.00;101563.53;5099243;28;20051;-77
2024/04/06 07:59:44;;;;;;;35.88;33.47;;;;;;;18.84;100.00;101564.09;5099159;28;20048;-77
2024/04/06 08:02:10;;;;;;;47.15;44.05;;;;;;;18.07;100.00;101572.44;5095957;28;20040;-77
2024/04/06 08:04:39;;;;;;;45.88;42.97;;;;;;;18.07;100.00;101575.13;5100837;28;20105;-77
2024/04/06 08:07:06;;;;;;;42.63;39.63;;;;;;;18.33;100.00;101581.06;5092095;28;20060;-77
2024/04/06 08:10:01;;;;;;;41.90;39.10;;;;;;;18.59;100.00;101571.66;5079107;28;20054;-77
2024/04/06 08:12:28;;;;;;;45.00;41.90;;;;;;;18.48;100.00;101566.06;5083573;28;20051;-77
2024/04/06 08:14:56;;;;;;;46.22;43.22;;;;;;;17.95;100.00;101569.78;5095501;28;20072;-77
2024/04/06 08:17:22;;;;;;;40.97;38.28;;;;;;;18.65;100.00;101573.38;5107080;28;20083;-77
2024/04/06 08:19:51;;;;;;;39.97;37.17;;;;;;;18.34;100.00;101571.97;5100237;28;20574;-76
2024/04/06 08:22:18;;;;;;;40.10;37.30;;;;;;;18.24;100.00;101573.34;5086662;28;20051;-75
2024/04/06 08:24:45;;;;;;;38.85;36.05;;;;;;;18.36;100.00;101577.91;5112495;28;20123;-76
2024/04/06 08:27:12;;;;;;;39.60;36.70;;;;;;;19.65;100.00;101564.72;5109148;27;20052;-76
2024/04/06 08:29:42;;;;;;;42.50;39.60;;;;;;;18.94;100.00;101585.84;5102979;28;20418;-76
2024/04/06 08:32:08;;;;;;;39.60;36.80;;;;;;;19.50;100.00;101586.00;5097160;28;20051;-76
2024/04/06 08:34:35;;;;;;;37.75;35.13;;;;;;;19.95;100.00;101573.50;5085129;28;20044;-77
2024/04/06 08:37:03;;;;;;;39.38;36.47;;;;;;;19.25;100.00;101574.81;5109688;28;20054;-76
2024/04/06 08:39:31;;;;;;;40.00;37.10;;;;;;;18.98;100.00;101580.78;5103815;28;20051;-76
2024/04/06 08:41:57;;;;;;;42.60;39.60;;;;;;;19.23;100.00;101572.34;5099903;28;20052;-75
2024/04/06 08:44:37;;;;;;;40.58;37.88;;;;;;;19.66;100.00;101569.03;5101035;28;20131;-76
2024/04/06 08:47:04;;;;;;;37.90;35.30;;;;;;;19.92;100.00;101563.22;5101137;28;20054;-76
2024/04/06 08:49:34;;;;;;;40.40;37.60;;;;;;;20.17;100.00;101558.19;5099874;28;20044;-75
2024/04/06 08:52:04;;;;;;;41.80;38.78;;;;;;;20.75;100.00;101547.81;5070923;28;20056;-77
2024/04/06 08:54:31;;;;;;;42.28;39.47;;;;;;;20.25;100.00;101543.44;5103731;28;20101;-77
2024/04/06 08:56:59;;;;;;;42.03;39.22;;;;;;;19.56;100.00;101549.19;5099032;28;20523;-77
2024/04/06 08:59:27;;;;;;;40.55;37.95;;;;;;;20.42;100.00;101548.78;5106034;28;20052;-77
2024/04/06 09:01:53;;;;;;;44.15;41.35;;;;;;;20.42;100.00;101541.50;5101947;28;20044;-75
2024/04/06 09:04:20;;;;;;;43.42;40.83;;;;;;;20.23;100.00;101542.88;5098495;28;20815;-76
2024/04/06 09:06:47;;;;;;;38.67;36.17;;;;;;;21.98;100.00;101546.16;5099574;28;20499;-76
2024/04/06 09:09:16;;;;;;;51.15;48.05;;;;;;;21.34;100.00;101541.66;5105115;28;20073;-76
2024/04/06 09:11:44;;;;;;;45.03;42.22;;;;;;;21.16;100.00;101532.84;5100438;28;20172;-76
2024/04/06 09:14:11;;;;;;;46.15;43.28;;;;;;;20.16;100.00;101539.56;5095615;28;20438;-76
2024/04/06 09:16:39;;;;;;;43.05;40.25;;;;;;;21.33;100.00;101531.88;5097930;28;20051;-76
2024/04/06 09:19:06;;;;;;;42.45;39.75;;;;;;;21.81;100.00;101517.38;5109112;28;20495;-76
2024/04/06 09:21:41;;;;;;;41.20;38.50;;;;;;;21.19;100.00;101526.13;5090700;28;20052;-75
2024/04/06 09:24:09;;;;;;;35.17;32.88;;;;;;;21.79;100.00;101521.47;5101365;28;20054;-76
2024/04/06 09:26:46;;;;;;;43.65;40.95;;;;;;;21.81;100.00;101514.69;5099119;28;20055;-76
2024/04/06 09:29:15;;;;;;;36.65;34.17;;;;;;;22.36;100.00;101515.22;5108520;28;20491;-75
2024/04/06 09:31:47;;;;;;;37.13;34.53;;;;;;;22.65;100.00;101512.88;5102512;28;20104;-76
2024/04/06 09:34:21;;;;;;;36.08;33.58;;;;;;;22.09;100.00;101499.16;5104201;28;20048;-76
2024/04/06 09:36:53;;;;;;;38.03;35.42;;;;;;;22.27;100.00;101506.84;5108174;28;20079;-76
2024/04/06 09:39:22;;;;;;;42.35;39.75;;;;;;;22.51;100.00;101509.91;5107619;28;20126;-76
2024/04/06 09:41:51;;;;;;;39.10;36.50;;;;;;;22.77;96.87;101507.22;5100583;28;20069;-75
2024/04/06 09:44:26;;;;;;;48.67;45.75;;;;;;;21.93;100.00;101498.25;5104579;28;20104;-76
2024/04/06 09:46:55;;;;;;;46.58;43.67;;;;;;;20.59;100.00;101506.38;5104518;28;20131;-76
2024/04/06 09:49:24;;;;;;;52.42;49.33;;;;;;;22.01;100.00;101497.75;5070490;28;20128;-76
2024/04/06 09:51:50;;;;;;;54.92;51.50;;;;;;;22.99;100.00;101496.16;5104448;28;20051;-75
2024/04/06 09:54:18;;;;;;;54.13;50.92;;;;;;;23.25;100.00;101476.13;5104754;28;20047;-76
2024/04/06 09:56:47;;;;;;;57.13;53.72;;;;;;;22.94;100.00;101488.03;5109760;28;20120;-76
2024/04/06 09:59:22;;;;;;;61.47;57.78;;;;;;;23.25;100.00;101495.09;5108767;28;20051;-76
2024/04/06 10:01:48;;;;;;;75.75;70.80;;;;;;;24.17;100.00;101481.31;5102379;28;20044;-76
2024/04/06 10:04:25;;;;;;;79.10;74.82;;;;;;;23.15;100.00;101486.97;5107876;28;20408;-75
2024/04/06 10:06:53;;;;;;;73.85;69.65;;;;;;;23.62;100.00;101482.28;5101185;28;20067;-76
2024/04/06 10:09:20;;;;;;;68.65;64.65;;;;;;;23.77;100.00;101491.22;5091124;28;20439;-76
2024/04/06 10:11:46;;;;;;;47.78;44.58;;;;;;;23.20;100.00;101489.66;5101135;28;20055;-76
2024/04/06 10:14:14;;;;;;;43.92;41.03;;;;;;;21.35;100.00;101489.22;5097737;28;20109;-75
2024/04/06 10:16:47;;;;;;;48.42;45.33;;;;;;;22.13;100.00;101487.53;5090902;28;20123;-76
2024/04/06 10:19:17;;;;;;;35.15;32.60;;;;;;;21.70;100.00;101486.78;5096707;28;20052;-76
2024/04/06 10:21:45;;;;;;;41.90;39.15;;;;;;;21.89;100.00;101492.56;5100377;28;20051;-76
2024/04/06 10:24:13;;;;;;;69.00;65.15;;;;;;;21.96;100.00;101486.91;5108210;28;20054;-76
2024/04/06 10:26:46;;;;;;;83.28;78.88;;;;;;;22.15;100.00;101476.47;5103908;28;20048;-75
2024/04/06 10:29:14;;;;;;;82.55;78.15;;;;;;;22.40;100.00;101473.84;5109241;28;20506;-76
2024/04/06 10:31:41;;;;;;;78.70;74.40;;;;;;;22.05;100.00;101471.00;5101812;28;20062;-75
2024/04/06 10:34:10;;;;;;;76.68;72.57;;;;;;;24.12;100.00;101464.25;5107371;28;20697;-75
2024/04/06 10:36:46;;;;;;;80.03;75.65;;;;;;;23.09;100.00;101460.97;5097677;28;20058;-75
2024/04/06 10:39:16;;;;;;;71.97;67.97;;;;;;;23.52;100.00;101454.13;5097815;28;20132;-76
2024/04/06 10:41:44;;;;;;;66.47;62.47;;;;;;;23.66;100.00;101459.78;5105812;28;20616;-75
2024/04/06 10:44:11;;;;;;;59.10;55.50;;;;;;;23.65;100.00;101458.16;5101021;28;20047;-75
2024/04/06 10:46:38;;;;;;;63.13;59.35;;;;;;;23.82;100.00;101446.22;5103391;28;20044;-77
2024/04/06 10:49:18;;;;;;;60.63;56.88;;;;;;;22.83;100.00;101455.50;5089163;28;20160;-77
2024/04/06 10:51:51;;;;;;;56.80;53.33;;;;;;;23.04;100.00;101442.81;5109567;28;20055;-77
2024/04/06 10:54:27;;;;;;;54.67;51.38;;;;;;;23.71;100.00;101432.66;5098234;28;20048;-77
2024/04/06 10:56:54;;;;;;;50.88;47.58;;;;;;;22.83;100.00;101441.16;5096006;28;20431;-77
2024/04/06 10:59:22;;;;;;;49.17;45.97;;;;;;;22.58;100.00;101431.13;5106080;28;20125;-75
2024/04/06 11:01:48;;;;;;;34.33;31.30;;;;;;;22.38;100.00;101435.41;5104034;28;20047;-77
2024/04/06 11:04:16;;;;;;;39.47;36.67;;;;;;;23.55;100.00;101422.94;5097461;28;20082;-77
2024/04/06 11:06:44;;;;;;;30.83;28.48;;;;;;;23.60;100.00;101424.81;5098953;28;20069;-77
2024/04/06 11:09:13;;;;;;;32.35;29.80;;;;;;;23.36;100.00;101416.47;5099722;28;20075;-77
2024/04/06 11:11:40;;;;;;;32.38;29.95;;;;;;;23.79;100.00;101417.75;5091272;28;20491;-76